Time;durP1;ratioP1;P1;durP2;ratioP2;P2;SDS_P1;SDS_P2;PMS_P1;PMS_P2;Temp;Humidity;BMP_temperature;BMP_pressure;BME280_temperature;BME280_humidity;BME280_pressure;Samples;Min_cycle;Max_cycle;Signal;HPM_P1;HPM_P2
2022/03/08 00:01:08;;;;;;;6.80;5.07;;;;;;;16.02;48.92;102540.84;5038440;28;20099;-74
2022/03/08 00:03:36;;;;;;;10.48;6.40;;;;;;;15.98;48.91;102549.41;5047246;28;20106;-74
2022/03/08 00:06:07;;;;;;;9.55;6.90;;;;;;;15.93;49.87;102542.25;5049260;28;20487;-76
2022/03/08 00:08:35;;;;;;;8.60;6.40;;;;;;;15.88;49.43;102542.97;5049683;28;20079;-74
2022/03/08 00:11:04;;;;;;;10.02;6.55;;;;;;;15.84;49.20;102540.19;5049043;28;20052;-74
2022/03/08 00:13:33;;;;;;;11.98;7.00;;;;;;;15.78;49.48;102540.88;5048900;28;20513;-75
2022/03/08 00:16:01;;;;;;;8.15;6.18;;;;;;;15.68;49.36;102539.59;5040174;28;20119;-74
2022/03/08 00:18:29;;;;;;;11.23;6.90;;;;;;;15.63;50.01;102533.31;5049582;28;20048;-74
2022/03/08 00:20:58;;;;;;;9.25;6.50;;;;;;;15.55;50.81;102533.88;5051996;28;20114;-74
2022/03/08 00:23:28;;;;;;;9.25;6.15;;;;;;;15.47;51.38;102530.97;5048768;28;20444;-73
2022/03/08 00:25:59;;;;;;;9.65;5.93;;;;;;;15.35;52.11;102528.78;5048881;28;20056;-73
2022/03/08 00:28:28;;;;;;;11.55;6.63;;;;;;;15.26;52.37;102520.63;5048110;28;20056;-74
2022/03/08 00:30:57;;;;;;;11.57;6.55;;;;;;;15.21;52.48;102522.13;5050086;28;20076;-73
2022/03/08 00:33:26;;;;;;;12.52;6.80;;;;;;;15.13;53.45;102516.63;5048733;28;20048;-72
2022/03/08 00:35:55;;;;;;;9.50;6.93;;;;;;;15.07;53.36;102522.50;5048349;28;20509;-74
2022/03/08 00:38:23;;;;;;;9.82;5.65;;;;;;;15.02;54.25;102518.81;5048734;28;20628;-74
2022/03/08 00:40:54;;;;;;;9.30;5.43;;;;;;;14.95;53.53;102510.69;5048415;28;20060;-74
2022/03/08 00:43:22;;;;;;;4.93;2.80;;;;;;;14.88;50.84;102502.63;5048569;28;20053;-74
2022/03/08 00:45:50;;;;;;;5.40;3.10;;;;;;;14.82;50.94;102507.63;5047931;28;20502;-74
2022/03/08 00:48:19;;;;;;;5.18;3.42;;;;;;;14.78;50.92;102497.00;5048415;28;20076;-73
2022/03/08 00:50:48;;;;;;;7.50;3.03;;;;;;;14.74;51.72;102501.19;5048721;28;20122;-73
2022/03/08 00:53:17;;;;;;;3.97;2.50;;;;;;;14.68;49.51;102508.75;5047933;28;20114;-72
2022/03/08 00:55:45;;;;;;;6.70;3.33;;;;;;;14.64;49.73;102509.50;5049057;28;20130;-76
2022/03/08 00:58:15;;;;;;;5.35;3.08;;;;;;;14.57;49.57;102497.94;5049140;28;20065;-76
2022/03/08 01:00:44;;;;;;;5.75;2.95;;;;;;;14.55;49.68;102501.28;5048290;28;20049;-75
2022/03/08 01:03:12;;;;;;;3.90;2.58;;;;;;;14.50;50.15;102494.94;5047898;28;20086;-75
2022/03/08 01:05:41;;;;;;;5.82;3.60;;;;;;;14.43;49.94;102499.94;5048306;28;20045;-74
2022/03/08 01:08:10;;;;;;;5.20;2.78;;;;;;;14.39;51.80;102490.19;5048708;28;20411;-75
2022/03/08 01:10:38;;;;;;;4.75;2.22;;;;;;;14.33;51.14;102487.34;5047594;28;20041;-75
2022/03/08 01:13:07;;;;;;;4.05;1.92;;;;;;;14.27;50.20;102492.31;5041079;28;20033;-75
2022/03/08 01:15:37;;;;;;;4.38;2.10;;;;;;;14.19;49.93;102488.47;5042310;28;20569;-76
2022/03/08 01:18:05;;;;;;;5.65;2.97;;;;;;;14.13;50.09;102486.50;5050898;28;20088;-74
2022/03/08 01:20:34;;;;;;;5.15;2.13;;;;;;;14.07;50.32;102494.06;5048831;28;20146;-74
2022/03/08 01:23:02;;;;;;;4.25;2.53;;;;;;;14.01;50.86;102489.44;5047520;28;20201;-76
2022/03/08 01:25:31;;;;;;;5.45;2.55;;;;;;;13.98;50.51;102497.16;5047329;28;20118;-72
2022/03/08 01:28:00;;;;;;;4.70;2.90;;;;;;;13.93;51.34;102496.06;5047838;28;20052;-72
2022/03/08 01:30:28;;;;;;;5.50;2.58;;;;;;;13.88;51.73;102500.19;5055608;28;20061;-72
2022/03/08 01:32:58;;;;;;;5.07;2.55;;;;;;;13.82;51.33;102498.19;5028187;28;20053;-72
2022/03/08 01:35:27;;;;;;;4.70;2.65;;;;;;;13.78;52.26;102506.66;5028388;28;20046;-72
2022/03/08 01:37:56;;;;;;;3.28;1.85;;;;;;;13.75;52.30;102510.88;5043629;28;20077;-73
2022/03/08 01:40:24;;;;;;;3.25;2.10;;;;;;;13.69;53.15;102506.25;5034770;28;20076;-72
2022/03/08 01:42:54;;;;;;;4.93;2.30;;;;;;;13.60;53.26;102500.66;5050937;28;20110;-73
2022/03/08 01:45:26;;;;;;;6.97;2.70;;;;;;;13.51;53.90;102503.72;5054122;28;20041;-72
2022/03/08 01:47:55;;;;;;;6.13;2.63;;;;;;;13.46;54.34;102506.94;5054132;28;20044;-74
2022/03/08 01:50:25;;;;;;;5.18;2.53;;;;;;;13.38;54.73;102510.09;5041058;28;20109;-75
2022/03/08 01:52:54;;;;;;;5.53;2.72;;;;;;;13.32;55.32;102508.91;5053483;28;20048;-74
2022/03/08 01:55:25;;;;;;;6.70;3.00;;;;;;;13.26;55.66;102503.38;5040325;28;20091;-74
2022/03/08 01:57:54;;;;;;;6.00;3.10;;;;;;;13.19;56.11;102507.41;5054131;28;20049;-74
2022/03/08 02:00:25;;;;;;;8.90;3.33;;;;;;;13.11;55.82;102509.66;5054560;28;20094;-74
2022/03/08 02:02:54;;;;;;;5.50;3.30;;;;;;;13.05;56.26;102509.34;5053892;28;20490;-74
2022/03/08 02:05:25;;;;;;;7.53;3.17;;;;;;;12.96;56.65;102504.63;5054302;28;20053;-74
2022/03/08 02:07:54;;;;;;;5.10;2.92;;;;;;;12.88;56.31;102510.28;5053920;28;20507;-74
2022/03/08 02:10:22;;;;;;;7.18;2.95;;;;;;;12.78;56.90;102520.22;5053427;28;20101;-74
2022/03/08 02:12:51;;;;;;;6.57;2.92;;;;;;;12.66;57.55;102514.41;5043060;28;20072;-75
2022/03/08 02:15:22;;;;;;;5.55;2.97;;;;;;;12.55;56.75;102511.31;5054478;28;20099;-76
2022/03/08 02:17:51;;;;;;;6.20;2.63;;;;;;;12.46;58.03;102515.13;5037871;28;20053;-76
2022/03/08 02:20:20;;;;;;;7.38;2.90;;;;;;;12.38;58.25;102522.53;5043491;28;20528;-75
2022/03/08 02:22:51;;;;;;;5.88;3.55;;;;;;;12.30;58.66;102523.84;5053292;28;20068;-74
2022/03/08 02:25:21;;;;;;;6.15;2.90;;;;;;;12.20;58.91;102532.88;5053822;28;20057;-75
2022/03/08 02:27:52;;;;;;;6.05;2.78;;;;;;;12.13;59.05;102539.44;5054159;28;20550;-75
2022/03/08 02:30:22;;;;;;;4.95;2.72;;;;;;;12.05;58.93;102537.28;5054600;28;20119;-76
2022/03/08 02:32:51;;;;;;;5.50;2.42;;;;;;;11.98;59.49;102533.50;5052852;28;20495;-75
2022/03/08 02:35:21;;;;;;;8.02;3.58;;;;;;;11.93;59.44;102535.84;5053515;28;20150;-76
2022/03/08 02:37:53;;;;;;;6.25;3.28;;;;;;;11.83;60.02;102515.38;5054167;28;20052;-75
2022/03/08 02:40:23;;;;;;;5.75;2.22;;;;;;;11.77;60.00;102528.00;5054363;28;20051;-77
2022/03/08 02:42:52;;;;;;;9.60;2.20;;;;;;;11.69;60.17;102524.13;5053211;28;20588;-74
2022/03/08 02:45:21;;;;;;;10.65;2.67;;;;;;;11.62;60.26;102529.81;5053637;28;20682;-75
2022/03/08 02:47:50;;;;;;;5.00;2.13;;;;;;;11.56;61.13;102534.66;5053947;28;20049;-74
2022/03/08 02:50:19;;;;;;;3.85;2.53;;;;;;;11.51;61.67;102537.00;5052038;28;20069;-74
2022/03/08 02:52:51;;;;;;;7.13;2.38;;;;;;;11.46;61.31;102533.28;5050507;28;20045;-74
2022/03/08 02:55:22;;;;;;;6.13;2.33;;;;;;;11.40;61.73;102544.19;5051419;28;20052;-76
2022/03/08 02:57:52;;;;;;;3.65;2.28;;;;;;;11.34;61.16;102536.09;5050867;28;20053;-76
2022/03/08 03:00:23;;;;;;;6.35;2.83;;;;;;;11.28;61.72;102540.94;5050640;28;20380;-75
2022/03/08 03:02:52;;;;;;;9.93;2.42;;;;;;;11.22;62.06;102540.56;5050495;28;20138;-77
2022/03/08 03:05:21;;;;;;;5.07;2.22;;;;;;;11.14;62.42;102539.28;5050243;28;20057;-76
2022/03/08 03:07:52;;;;;;;8.50;3.17;;;;;;;11.07;63.22;102538.94;5051215;28;20177;-76
2022/03/08 03:10:22;;;;;;;6.10;2.55;;;;;;;11.00;63.40;102547.16;5053142;28;20128;-76
2022/03/08 03:12:51;;;;;;;5.70;2.80;;;;;;;10.96;64.03;102542.59;5050719;28;20128;-77
2022/03/08 03:15:20;;;;;;;7.13;3.05;;;;;;;10.90;64.27;102545.75;5050922;28;20106;-77
2022/03/08 03:17:49;;;;;;;11.13;2.85;;;;;;;10.84;65.66;102548.00;5050005;28;20052;-76
2022/03/08 03:20:19;;;;;;;11.82;3.65;;;;;;;10.80;64.16;102547.72;5050518;28;20118;-75
2022/03/08 03:22:49;;;;;;;7.13;2.72;;;;;;;10.73;64.73;102556.84;5049819;28;20053;-76
2022/03/08 03:25:19;;;;;;;8.45;3.45;;;;;;;10.68;66.33;102554.00;5050405;28;20099;-76
2022/03/08 03:27:48;;;;;;;9.32;3.50;;;;;;;10.66;67.68;102554.69;5050035;28;20566;-75
2022/03/08 03:30:18;;;;;;;7.78;3.60;;;;;;;10.62;68.53;102563.97;5036961;28;20056;-75
2022/03/08 03:32:48;;;;;;;7.53;2.90;;;;;;;10.52;67.00;102559.09;5049423;28;20511;-77
2022/03/08 03:35:17;;;;;;;7.15;2.80;;;;;;;10.42;66.15;102564.50;5049440;28;20098;-77
2022/03/08 03:37:46;;;;;;;9.32;4.22;;;;;;;10.33;67.86;102559.69;5050012;28;20048;-77
2022/03/08 03:40:15;;;;;;;8.65;4.90;;;;;;;10.26;68.11;102554.91;5048739;28;20128;-75
2022/03/08 03:42:46;;;;;;;7.30;4.30;;;;;;;10.20;69.60;102563.22;5035374;28;20576;-77
2022/03/08 03:45:15;;;;;;;11.93;5.43;;;;;;;10.15;69.48;102551.69;5049511;28;20059;-78
2022/03/08 03:47:43;;;;;;;6.32;3.28;;;;;;;10.04;69.71;102560.50;5048827;28;20059;-78
2022/03/08 03:50:12;;;;;;;12.73;4.43;;;;;;;9.95;70.48;102562.53;5050264;28;20060;-78
2022/03/08 03:52:41;;;;;;;7.80;3.08;;;;;;;9.90;71.46;102561.38;5049035;28;20061;-78
2022/03/08 03:55:11;;;;;;;9.05;3.88;;;;;;;9.84;73.31;102567.91;5050382;28;20076;-76
2022/03/08 03:57:39;;;;;;;6.70;3.83;;;;;;;9.82;73.32;102574.69;5049555;28;20053;-77
2022/03/08 04:00:13;;;;;;;9.43;3.95;;;;;;;9.77;73.02;102568.34;5034560;28;20049;-78
2022/03/08 04:02:42;;;;;;;10.77;3.50;;;;;;;9.71;74.21;102575.75;5036502;28;20049;-78
2022/03/08 04:05:12;;;;;;;4.45;2.72;;;;;;;9.66;74.35;102577.13;5049775;28;20132;-76
2022/03/08 04:07:40;;;;;;;9.75;3.13;;;;;;;9.63;74.21;102576.94;5052213;28;20226;-75
2022/03/08 04:10:11;;;;;;;10.52;3.13;;;;;;;9.53;75.30;102580.66;5050582;28;20056;-74
2022/03/08 04:12:40;;;;;;;6.25;3.22;;;;;;;9.47;75.81;102574.19;5046300;28;20099;-74
2022/03/08 04:15:11;;;;;;;6.35;3.40;;;;;;;9.40;75.98;102588.41;5039233;28;20087;-75
2022/03/08 04:17:40;;;;;;;6.53;2.97;;;;;;;9.36;75.96;102584.72;5048915;28;20052;-75
2022/03/08 04:20:10;;;;;;;8.75;2.83;;;;;;;9.33;76.28;102581.06;5048923;28;20099;-77
2022/03/08 04:22:39;;;;;;;6.95;3.97;;;;;;;9.28;75.93;102575.63;5049086;28;20052;-75
2022/03/08 04:25:08;;;;;;;5.40;2.85;;;;;;;9.24;76.19;102571.03;5049031;28;20098;-77
2022/03/08 04:27:37;;;;;;;6.93;3.53;;;;;;;9.18;75.33;102575.81;5049146;28;20053;-77
2022/03/08 04:30:08;;;;;;;10.10;3.92;;;;;;;9.13;75.14;102577.22;5049405;28;20088;-75
2022/03/08 04:32:38;;;;;;;9.48;4.45;;;;;;;9.05;75.45;102563.81;5048318;28;20045;-74
2022/03/08 04:35:07;;;;;;;7.40;3.85;;;;;;;9.04;76.22;102561.13;5049023;28;20419;-76
2022/03/08 04:37:36;;;;;;;9.13;3.60;;;;;;;8.99;75.91;102563.41;5048675;28;20045;-76
2022/03/08 04:40:05;;;;;;;7.13;3.50;;;;;;;8.94;76.51;102560.53;5049033;28;20107;-77
2022/03/08 04:42:34;;;;;;;7.10;3.80;;;;;;;8.86;75.25;102548.78;5047876;28;20091;-78
2022/03/08 04:45:02;;;;;;;6.03;3.80;;;;;;;8.79;76.51;102554.34;5048437;28;20145;-76
2022/03/08 04:47:32;;;;;;;8.02;3.45;;;;;;;8.72;76.34;102563.38;5048148;28;20045;-74
2022/03/08 04:50:02;;;;;;;10.23;4.38;;;;;;;8.63;77.17;102567.03;5047999;28;20049;-77
2022/03/08 04:52:30;;;;;;;8.65;3.42;;;;;;;8.63;77.39;102575.69;5048613;28;20045;-73
2022/03/08 04:54:59;;;;;;;9.63;3.28;;;;;;;8.59;78.00;102577.19;5048412;28;20107;-81
2022/03/08 04:57:27;;;;;;;6.93;3.55;;;;;;;8.55;77.40;102574.28;5048849;28;20053;-80
2022/03/08 04:59:56;;;;;;;8.10;3.75;;;;;;;8.50;77.58;102581.72;5047934;28;20098;-78
2022/03/08 05:02:24;;;;;;;5.50;3.45;;;;;;;8.41;77.16;102575.94;5047929;28;20564;-79
2022/03/08 05:04:53;;;;;;;8.32;3.30;;;;;;;8.33;77.45;102571.91;5048606;28;20059;-79
2022/03/08 05:07:23;;;;;;;7.43;3.35;;;;;;;8.27;78.16;102586.97;5050828;28;20103;-77
2022/03/08 05:09:51;;;;;;;6.05;2.95;;;;;;;8.15;79.68;102585.34;5049104;28;20052;-79
2022/03/08 05:12:20;;;;;;;8.70;3.72;;;;;;;8.03;82.41;102586.19;5047651;28;20503;-77
2022/03/08 05:14:48;;;;;;;9.80;4.88;;;;;;;7.96;84.37;102577.13;5047186;28;20102;-78
2022/03/08 05:17:17;;;;;;;12.00;4.38;;;;;;;7.94;84.52;102578.69;5041405;28;20052;-75
2022/03/08 05:19:45;;;;;;;8.77;3.42;;;;;;;7.89;84.59;102574.91;5047939;28;20300;-77
2022/03/08 05:22:14;;;;;;;6.35;3.17;;;;;;;7.86;84.00;102578.19;5047927;28;20106;-77
2022/03/08 05:24:44;;;;;;;8.45;3.67;;;;;;;7.81;82.18;102594.09;5047634;28;20052;-77
2022/03/08 05:27:12;;;;;;;5.38;2.50;;;;;;;7.67;84.10;102587.97;5048465;28;20049;-78
2022/03/08 05:29:41;;;;;;;5.85;2.42;;;;;;;7.53;84.75;102579.25;5047945;28;20407;-78
2022/03/08 05:32:10;;;;;;;3.75;2.28;;;;;;;7.32;84.76;102551.19;5046928;28;20076;-78
2022/03/08 05:34:39;;;;;;;6.97;2.60;;;;;;;7.43;85.83;102576.84;5047791;28;20079;-77
2022/03/08 05:37:08;;;;;;;6.75;2.20;;;;;;;7.43;86.59;102584.56;5047692;28;20060;-76
2022/03/08 05:39:37;;;;;;;8.85;3.80;;;;;;;7.41;86.90;102592.16;5048150;28;20041;-77
2022/03/08 05:42:07;;;;;;;7.53;3.83;;;;;;;7.41;88.80;102586.13;5047707;28;20267;-77
2022/03/08 05:44:36;;;;;;;7.45;2.58;;;;;;;7.37;88.46;102585.00;5047725;28;20049;-76
2022/03/08 05:47:05;;;;;;;6.30;2.90;;;;;;;7.33;87.11;102591.63;5048276;28;20053;-78
2022/03/08 05:49:34;;;;;;;11.45;3.67;;;;;;;7.27;87.86;102598.91;5047877;28;20049;-77
2022/03/08 05:52:02;;;;;;;6.78;3.03;;;;;;;7.23;89.50;102591.72;5033782;28;20084;-78
2022/03/08 05:54:31;;;;;;;5.05;2.75;;;;;;;7.16;88.79;102589.50;5047957;28;20061;-77
2022/03/08 05:56:59;;;;;;;9.93;2.95;;;;;;;7.04;90.33;102578.31;5047590;28;20041;-77
2022/03/08 05:59:29;;;;;;;5.40;2.50;;;;;;;6.92;92.64;102581.78;5048532;28;20053;-79
2022/03/08 06:01:58;;;;;;;4.82;2.22;;;;;;;6.86;100.00;102585.59;5047763;28;20531;-72
2022/03/08 06:04:26;;;;;;;6.75;2.63;;;;;;;6.80;100.00;102583.44;5049066;28;20045;-80
2022/03/08 06:06:55;;;;;;;5.60;3.08;;;;;;;6.78;100.00;102582.47;5050016;28;20071;-79
2022/03/08 06:09:24;;;;;;;12.20;3.78;;;;;;;6.80;100.00;102583.44;5048549;28;20132;-77
2022/03/08 06:11:52;;;;;;;6.82;2.70;;;;;;;6.83;100.00;102587.94;5047376;28;20088;-77
2022/03/08 06:14:20;;;;;;;60.20;25.63;;;;;;;6.84;100.00;102595.75;5034005;28;20095;-76
2022/03/08 06:16:51;;;;;;;13.10;7.25;;;;;;;6.86;100.00;102593.31;5047751;28;20045;-76
2022/03/08 06:19:19;;;;;;;13.82;4.20;;;;;;;6.88;100.00;102586.59;5048378;28;20060;-78
2022/03/08 06:21:48;;;;;;;8.32;2.80;;;;;;;6.88;100.00;102592.63;5047434;28;20049;-75
2022/03/08 06:24:18;;;;;;;8.77;3.97;;;;;;;6.85;100.00;102582.13;5048349;28;20090;-78
2022/03/08 06:26:46;;;;;;;7.65;3.67;;;;;;;6.84;100.00;102580.31;5050779;28;20064;-76
2022/03/08 06:29:15;;;;;;;11.80;3.83;;;;;;;6.80;100.00;102580.88;5051584;28;20485;-78
2022/03/08 06:31:43;;;;;;;8.50;2.90;;;;;;;6.78;100.00;102585.03;5051880;28;20056;-75
2022/03/08 06:34:13;;;;;;;9.25;3.88;;;;;;;6.78;100.00;102579.88;5051066;28;20044;-78
2022/03/08 06:36:43;;;;;;;8.45;3.60;;;;;;;6.75;100.00;102571.03;5050989;28;20045;-78
2022/03/08 06:39:11;;;;;;;5.28;2.78;;;;;;;6.75;100.00;102576.19;5037694;28;20052;-77
2022/03/08 06:41:40;;;;;;;10.77;3.88;;;;;;;6.75;100.00;102579.63;5051091;28;20053;-77
2022/03/08 06:44:08;;;;;;;11.15;3.92;;;;;;;6.75;100.00;102573.59;5050869;28;20053;-78
2022/03/08 06:46:41;;;;;;;7.22;4.00;;;;;;;6.73;100.00;102570.91;5051148;28;20049;-77
2022/03/08 06:49:10;;;;;;;8.63;3.58;;;;;;;6.73;100.00;102565.75;5051229;28;20048;-77
2022/03/08 06:51:40;;;;;;;10.15;4.47;;;;;;;6.74;100.00;102562.44;5050425;28;20049;-77
2022/03/08 06:54:09;;;;;;;9.32;4.70;;;;;;;6.71;100.00;102563.09;5051196;28;20146;-77
2022/03/08 06:56:38;;;;;;;6.55;3.03;;;;;;;6.68;100.00;102560.28;5049851;28;20037;-77
2022/03/08 06:59:07;;;;;;;10.73;3.40;;;;;;;6.67;100.00;102557.63;5050902;28;20056;-77
2022/03/08 07:01:42;;;;;;;5.90;3.22;;;;;;;6.63;100.00;102546.19;5049035;28;20072;-75
2022/03/08 07:04:10;;;;;;;7.07;3.13;;;;;;;6.57;100.00;102558.59;5049755;28;20496;-72
2022/03/08 07:06:41;;;;;;;8.20;3.25;;;;;;;6.52;100.00;102553.88;5050076;28;20487;-72
2022/03/08 07:09:10;;;;;;;6.97;3.00;;;;;;;6.53;100.00;102559.16;5050928;28;20095;-72
2022/03/08 07:11:40;;;;;;;11.27;3.28;;;;;;;6.54;100.00;102557.47;5050146;28;20103;-73
2022/03/08 07:14:09;;;;;;;7.68;3.17;;;;;;;6.53;100.00;102550.53;5050801;28;20104;-73
2022/03/08 07:16:38;;;;;;;8.18;3.80;;;;;;;6.53;100.00;102546.31;5042469;28;20049;-73
2022/03/08 07:19:07;;;;;;;11.57;4.03;;;;;;;6.54;100.00;102547.19;5051257;28;20060;-73
2022/03/08 07:21:35;;;;;;;6.88;4.13;;;;;;;6.53;100.00;102545.38;5037076;28;20049;-73
2022/03/08 07:24:06;;;;;;;12.65;4.35;;;;;;;6.52;100.00;102548.75;5050621;28;20111;-73
2022/03/08 07:26:35;;;;;;;8.38;3.78;;;;;;;6.49;100.00;102540.03;5050261;28;20506;-73
2022/03/08 07:29:03;;;;;;;10.25;3.85;;;;;;;6.44;100.00;102536.22;5051111;28;20052;-73
2022/03/08 07:31:31;;;;;;;10.50;3.42;;;;;;;6.41;100.00;102546.25;5053272;28;20113;-73
2022/03/08 07:34:00;;;;;;;12.50;4.13;;;;;;;6.39;100.00;102555.56;5050847;28;20107;-73
2022/03/08 07:36:29;;;;;;;12.05;4.35;;;;;;;6.39;100.00;102550.41;5049585;28;20103;-73
2022/03/08 07:38:57;;;;;;;10.40;4.15;;;;;;;6.37;100.00;102551.97;5037334;28;20049;-73
2022/03/08 07:41:27;;;;;;;6.72;3.53;;;;;;;6.31;100.00;102548.94;5049971;28;20053;-73
2022/03/08 07:43:56;;;;;;;7.97;3.65;;;;;;;6.28;100.00;102543.56;5049685;28;20049;-73
2022/03/08 07:46:24;;;;;;;5.30;3.13;;;;;;;6.27;100.00;102552.03;5050646;28;20056;-73
2022/03/08 07:48:53;;;;;;;7.03;2.95;;;;;;;6.22;100.00;102549.13;5050140;28;20053;-74
2022/03/08 07:51:21;;;;;;;15.18;5.15;;;;;;;6.17;100.00;102542.75;5049939;28;20045;-73
2022/03/08 07:53:50;;;;;;;14.35;5.22;;;;;;;6.11;100.00;102542.25;5049892;28;20052;-73
2022/03/08 07:56:18;;;;;;;14.80;4.30;;;;;;;6.12;100.00;102546.66;5036289;28;20045;-73
2022/03/08 07:58:48;;;;;;;12.02;4.85;;;;;;;6.11;100.00;102549.09;5049817;28;20138;-73
2022/03/08 08:01:17;;;;;;;6.32;3.95;;;;;;;6.08;100.00;102542.94;5050042;28;20483;-73
2022/03/08 08:03:45;;;;;;;6.78;3.88;;;;;;;6.06;100.00;102546.16;5049637;28;20056;-73
2022/03/08 08:06:14;;;;;;;8.23;3.28;;;;;;;6.03;100.00;102551.09;5049873;28;20045;-73
2022/03/08 08:08:49;;;;;;;8.63;4.13;;;;;;;6.00;100.00;102553.41;5049940;28;20045;-73
2022/03/08 08:11:18;;;;;;;7.80;3.80;;;;;;;5.96;100.00;102549.72;5050148;28;20084;-73
2022/03/08 08:13:48;;;;;;;8.15;3.28;;;;;;;5.95;100.00;102547.00;5049561;28;20057;-73
2022/03/08 08:16:17;;;;;;;8.15;3.72;;;;;;;5.92;100.00;102545.06;5050919;28;20045;-73
2022/03/08 08:18:46;;;;;;;9.63;3.90;;;;;;;5.91;100.00;102540.72;5052656;28;20045;-73
2022/03/08 08:21:15;;;;;;;7.88;3.63;;;;;;;5.82;100.00;102538.34;5050011;28;20057;-73
2022/03/08 08:23:43;;;;;;;8.10;3.58;;;;;;;5.75;100.00;102536.09;5050014;28;20040;-73
2022/03/08 08:26:12;;;;;;;6.93;3.80;;;;;;;5.75;100.00;102535.16;5049418;28;20522;-73
2022/03/08 08:28:40;;;;;;;8.88;4.05;;;;;;;5.74;100.00;102541.09;5049985;28;20110;-72
2022/03/08 08:31:11;;;;;;;10.70;3.75;;;;;;;5.73;100.00;102539.31;5050324;28;20522;-73
2022/03/08 08:33:39;;;;;;;8.63;3.63;;;;;;;5.72;100.00;102533.25;5049527;28;20087;-73
2022/03/08 08:36:08;;;;;;;7.05;3.72;;;;;;;5.64;100.00;102524.97;5049719;28;20041;-73
2022/03/08 08:38:37;;;;;;;7.82;3.88;;;;;;;5.55;100.00;102524.25;5049411;28;20084;-73
2022/03/08 08:41:05;;;;;;;8.10;3.22;;;;;;;5.53;100.00;102523.22;5049660;28;20041;-73
2022/03/08 08:43:34;;;;;;;6.18;3.28;;;;;;;5.53;100.00;102520.66;5048441;28;20049;-73
2022/03/08 08:46:04;;;;;;;8.32;3.85;;;;;;;5.54;100.00;102527.56;5049744;28;20044;-73
2022/03/08 08:48:35;;;;;;;8.90;4.57;;;;;;;5.55;100.00;102529.38;5049273;28;20045;-73
2022/03/08 08:51:03;;;;;;;6.85;3.63;;;;;;;5.56;100.00;102520.00;5049137;28;20044;-73
2022/03/08 08:53:32;;;;;;;7.45;3.72;;;;;;;5.56;100.00;102526.03;5048992;28;20052;-73
2022/03/08 08:56:00;;;;;;;7.53;3.83;;;;;;;5.55;100.00;102519.13;5049140;28;20146;-73
2022/03/08 08:58:29;;;;;;;8.50;3.67;;;;;;;5.55;100.00;102526.81;5035402;28;20072;-73
2022/03/08 09:00:57;;;;;;;7.05;3.30;;;;;;;5.55;100.00;102528.50;5049047;28;20045;-73
2022/03/08 09:03:26;;;;;;;8.82;3.78;;;;;;;5.54;100.00;102530.16;5048681;28;20098;-73
2022/03/08 09:05:56;;;;;;;8.75;4.25;;;;;;;5.55;100.00;102533.63;5048802;28;20049;-73
2022/03/08 09:08:25;;;;;;;9.80;3.88;;;;;;;5.52;100.00;102529.16;5049308;28;20103;-73
2022/03/08 09:10:54;;;;;;;8.77;4.32;;;;;;;5.46;100.00;102534.69;5048677;28;20075;-74
2022/03/08 09:13:23;;;;;;;9.85;4.38;;;;;;;5.41;100.00;102533.44;5039232;28;20611;-73
2022/03/08 09:15:53;;;;;;;11.27;4.03;;;;;;;5.41;100.00;102530.00;5036725;28;20095;-72
2022/03/08 09:18:22;;;;;;;9.13;4.28;;;;;;;5.34;100.00;102523.47;5051820;28;20099;-73
2022/03/08 09:20:50;;;;;;;12.13;5.00;;;;;;;5.31;100.00;102524.88;5048831;28;20064;-72
2022/03/08 09:23:20;;;;;;;7.70;4.75;;;;;;;5.32;100.00;102529.25;5048346;28;20053;-72
2022/03/08 09:25:49;;;;;;;9.43;4.50;;;;;;;5.35;100.00;102529.50;5048892;28;20076;-73
2022/03/08 09:28:18;;;;;;;10.88;4.63;;;;;;;5.38;100.00;102524.59;5048581;28;20506;-73
2022/03/08 09:30:48;;;;;;;10.20;4.03;;;;;;;5.37;100.00;102525.38;5049212;28;20106;-73
2022/03/08 09:33:16;;;;;;;10.43;3.97;;;;;;;5.36;100.00;102521.00;5048526;28;20613;-72
2022/03/08 09:35:45;;;;;;;13.63;4.50;;;;;;;5.38;100.00;102522.03;5048393;28;20059;-73
2022/03/08 09:38:13;;;;;;;10.88;4.10;;;;;;;5.32;100.00;102513.88;5048898;28;20049;-73
2022/03/08 09:40:44;;;;;;;11.80;3.88;;;;;;;5.31;100.00;102512.94;5048541;28;20056;-73
2022/03/08 09:43:13;;;;;;;10.77;4.70;;;;;;;5.35;100.00;102520.13;5048630;28;20057;-73
2022/03/08 09:45:42;;;;;;;11.85;3.95;;;;;;;5.38;100.00;102514.31;5048378;28;20099;-74
2022/03/08 09:48:10;;;;;;;7.82;4.60;;;;;;;5.36;100.00;102515.88;5048918;28;20083;-73
2022/03/08 09:50:39;;;;;;;12.70;4.22;;;;;;;5.38;100.00;102519.44;5047819;28;20055;-72
2022/03/08 09:53:11;;;;;;;8.43;4.38;;;;;;;5.42;100.00;102517.25;5048570;28;20053;-72
2022/03/08 09:55:40;;;;;;;16.35;4.70;;;;;;;5.40;100.00;102505.97;5048529;28;20045;-72
2022/03/08 09:58:10;;;;;;;10.25;4.40;;;;;;;5.40;100.00;102507.63;5048351;28;20575;-72
2022/03/08 10:00:41;;;;;;;8.38;4.40;;;;;;;5.40;100.00;102497.38;5051723;28;20494;-71
2022/03/08 10:03:11;;;;;;;8.07;4.43;;;;;;;5.49;100.00;102497.19;5052550;28;20132;-72
2022/03/08 10:05:42;;;;;;;10.85;4.65;;;;;;;5.52;100.00;102495.78;5052077;28;20247;-72
2022/03/08 10:08:13;;;;;;;12.85;5.50;;;;;;;5.56;100.00;102500.34;5052512;28;20044;-72
2022/03/08 10:10:49;;;;;;;12.10;4.88;;;;;;;5.59;100.00;102492.00;5038649;28;20053;-73
2022/03/08 10:13:22;;;;;;;7.50;4.40;;;;;;;5.59;100.00;102495.47;5052395;28;20106;-73
2022/03/08 10:16:08;;;;;;;8.98;4.32;;;;;;;5.63;100.00;102492.34;5043694;28;20107;-73
2022/03/08 10:18:37;;;;;;;13.48;4.60;;;;;;;5.64;100.00;102489.00;5055746;28;20072;-73
2022/03/08 10:21:11;;;;;;;12.95;4.78;;;;;;;5.67;100.00;102483.22;5052037;28;20102;-73
2022/03/08 10:23:43;;;;;;;9.73;4.72;;;;;;;5.70;100.00;102482.56;5051907;28;20087;-73
2022/03/08 10:26:13;;;;;;;17.00;5.35;;;;;;;5.73;100.00;102480.25;5048020;28;20046;-73
2022/03/08 10:28:51;;;;;;;10.40;4.65;;;;;;;5.77;100.00;102479.66;5032766;28;20077;-73
2022/03/08 10:31:20;;;;;;;8.15;4.20;;;;;;;5.79;100.00;102483.25;5042865;28;20048;-73
2022/03/08 10:33:51;;;;;;;10.50;4.78;;;;;;;5.83;100.00;102485.28;5051792;28;20215;-73
2022/03/08 10:36:22;;;;;;;11.27;5.93;;;;;;;5.83;100.00;102480.16;5051973;28;20049;-73
2022/03/08 10:39:20;;;;;;;14.10;7.13;;;;;;;5.84;100.00;102481.94;5051773;28;20096;-73
2022/03/08 10:41:51;;;;;;;19.58;7.68;;;;;;;5.87;100.00;102492.47;4964550;28;20050;-73
2022/03/08 10:44:33;;;;;;;14.20;6.90;;;;;;;5.86;100.00;102488.06;5031866;28;20087;-73
2022/03/08 10:47:07;;;;;;;13.32;5.65;;;;;;;5.81;100.00;102486.84;5052025;28;20053;-73
2022/03/08 10:49:36;;;;;;;12.55;5.50;;;;;;;5.78;100.00;102484.94;5052038;28;20052;-73
2022/03/08 10:52:07;;;;;;;16.13;5.75;;;;;;;5.80;100.00;102485.94;5051963;28;20052;-73
2022/03/08 10:54:35;;;;;;;13.20;5.75;;;;;;;5.82;100.00;102483.50;5052074;28;20052;-73
2022/03/08 10:57:04;;;;;;;12.30;5.32;;;;;;;5.84;100.00;102481.94;5051573;28;20107;-73
2022/03/08 10:59:34;;;;;;;13.18;6.07;;;;;;;5.83;100.00;102480.16;5051628;28;20056;-73
2022/03/08 11:02:21;;;;;;;14.75;5.88;;;;;;;5.84;100.00;102469.06;5038927;28;20085;-73
2022/03/08 11:04:50;;;;;;;13.77;6.10;;;;;;;5.81;100.00;102456.00;5039424;28;20045;-73
2022/03/08 11:07:18;;;;;;;13.43;5.30;;;;;;;5.84;100.00;102469.06;5051645;28;20052;-73
2022/03/08 11:09:48;;;;;;;13.85;5.55;;;;;;;5.82;100.00;102462.97;5037831;28;20110;-73
2022/03/08 11:12:17;;;;;;;15.32;5.68;;;;;;;5.82;100.00;102466.41;5049900;28;20083;-72
2022/03/08 11:14:47;;;;;;;10.23;4.82;;;;;;;5.82;100.00;102478.38;5050814;28;20140;-73
2022/03/08 11:17:17;;;;;;;12.90;4.53;;;;;;;5.84;100.00;102469.06;5051758;28;20094;-72
2022/03/08 11:19:47;;;;;;;9.40;4.90;;;;;;;5.84;100.00;102462.28;5054328;28;20049;-74
2022/03/08 11:22:16;;;;;;;8.32;4.47;;;;;;;5.84;100.00;102458.81;5051370;28;20098;-73
2022/03/08 11:24:45;;;;;;;11.13;5.35;;;;;;;5.79;100.00;102455.00;5050022;28;20048;-73
2022/03/08 11:27:15;;;;;;;8.77;4.40;;;;;;;5.76;100.00;102453.09;5050469;28;20049;-74
2022/03/08 11:29:44;;;;;;;11.40;4.32;;;;;;;5.78;100.00;102458.34;5050277;28;20049;-73
2022/03/08 11:32:20;;;;;;;8.77;4.25;;;;;;;5.79;100.00;102455.00;5037705;28;20554;-73
2022/03/08 11:34:56;;;;;;;8.90;4.30;;;;;;;5.79;100.00;102455.00;5048726;28;20052;-73